Time;durP1;ratioP1;P1;durP2;ratioP2;P2;SDS_P1;SDS_P2;PMS_P1;PMS_P2;Temp;Humidity;BMP_temperature;BMP_pressure;BME280_temperature;BME280_humidity;BME280_pressure;Samples;Min_cycle;Max_cycle;Signal;HPM_P1;HPM_P2
2023/02/26 00:00:59;;;;;;;15.25;5.70;;;;;;;14.08;45.17;98357.81;5132272;27;20102;-75
2023/02/26 00:03:24;;;;;;;17.83;6.40;;;;;;;14.05;44.73;98347.38;5128790;27;20409;-75
2023/02/26 00:05:50;;;;;;;26.15;6.88;;;;;;;14.10;44.67;98344.19;5120758;27;20111;-76
2023/02/26 00:08:15;;;;;;;22.20;6.38;;;;;;;14.22;44.17;98342.28;5132039;27;20513;-75
2023/02/26 00:10:41;;;;;;;19.42;5.38;;;;;;;14.19;44.25;98346.72;5130885;28;20129;-75
2023/02/26 00:13:09;;;;;;;16.20;5.80;;;;;;;14.16;44.35;98351.09;5130327;28;20027;-75
2023/02/26 00:15:35;;;;;;;17.02;6.13;;;;;;;14.16;43.80;98337.03;5090504;28;20024;-75
2023/02/26 00:18:06;;;;;;;25.15;7.20;;;;;;;14.26;43.04;98343.16;5093955;28;20111;-75
2023/02/26 00:20:32;;;;;;;21.38;6.03;;;;;;;14.47;41.94;98339.72;5094199;28;20085;-75
2023/02/26 00:22:58;;;;;;;17.27;5.70;;;;;;;14.64;41.15;98338.25;5106265;28;20027;-75
2023/02/26 00:25:24;;;;;;;19.05;6.38;;;;;;;14.74;41.07;98343.19;5122283;27;20023;-75
2023/02/26 00:27:50;;;;;;;27.75;6.53;;;;;;;14.75;41.45;98341.16;5131125;27;20023;-75
2023/02/26 00:30:16;;;;;;;14.50;6.28;;;;;;;14.70;41.96;98331.03;5115509;28;20509;-75
2023/02/26 00:32:42;;;;;;;17.80;6.22;;;;;;;14.55;42.63;98338.59;5107043;28;20019;-75
2023/02/26 00:35:12;;;;;;;18.00;6.18;;;;;;;14.57;42.80;98319.31;5131401;27;20023;-75
2023/02/26 00:37:59;;;;;;;22.35;7.68;;;;;;;14.54;42.52;98316.44;5125339;27;20020;-75
2023/02/26 00:40:46;;;;;;;43.03;7.55;;;;;;;14.50;41.78;98327.66;5112899;28;20046;-75
2023/02/26 00:43:23;;;;;;;31.55;7.00;;;;;;;14.55;43.05;98318.06;5115378;27;20026;-75
2023/02/26 00:46:16;;;;;;;20.92;7.10;;;;;;;14.51;43.57;98320.84;5105650;27;20077;-75
2023/02/26 00:48:54;;;;;;;33.03;7.03;;;;;;;14.52;43.14;98313.22;5122928;27;20573;-75
2023/02/26 00:51:33;;;;;;;27.45;7.35;;;;;;;14.56;43.54;98314.06;5135046;27;20031;-75
2023/02/26 00:54:20;;;;;;;17.40;6.40;;;;;;;14.62;43.90;98308.88;5135733;27;20030;-75
2023/02/26 00:56:46;;;;;;;21.40;6.10;;;;;;;14.63;43.25;98300.03;5121317;27;20476;-75
2023/02/26 00:59:12;;;;;;;18.60;6.15;;;;;;;14.73;43.81;98304.16;5113618;27;20564;-75
2023/02/26 01:01:37;;;;;;;37.03;7.63;;;;;;;14.71;44.72;98304.50;5119547;27;20035;-75
2023/02/26 01:04:03;;;;;;;28.60;7.15;;;;;;;14.53;45.51;98297.97;5115857;27;20024;-75
2023/02/26 01:06:32;;;;;;;20.90;6.78;;;;;;;14.63;44.95;98302.88;5119712;27;20493;-75
2023/02/26 01:09:12;;;;;;;14.15;6.45;;;;;;;14.60;44.95;98310.06;5123326;27;20028;-75
2023/02/26 01:11:38;;;;;;;25.52;7.90;;;;;;;14.58;45.43;98306.03;5117675;27;20038;-75
2023/02/26 01:14:04;;;;;;;22.92;6.38;;;;;;;14.59;45.36;98316.06;5135285;27;20391;-75
2023/02/26 01:16:39;;;;;;;16.63;6.20;;;;;;;14.55;45.76;98315.25;5123272;27;20027;-75
2023/02/26 01:19:39;;;;;;;26.25;7.53;;;;;;;14.49;46.17;98333.72;5114694;27;20023;-75
2023/02/26 01:22:22;;;;;;;37.13;7.30;;;;;;;14.42;46.79;98335.25;5086641;28;20082;-75
2023/02/26 01:24:55;;;;;;;34.50;8.77;;;;;;;14.36;47.05;98336.81;5117109;27;20043;-75
2023/02/26 01:27:20;;;;;;;16.55;7.15;;;;;;;14.32;47.02;98342.41;5134436;27;20024;-75
2023/02/26 01:29:46;;;;;;;23.52;7.90;;;;;;;14.42;47.02;98343.69;5135054;27;20031;-75
2023/02/26 01:32:23;;;;;;;22.67;6.45;;;;;;;14.39;47.68;98338.84;5126148;27;20076;-75
2023/02/26 01:35:11;;;;;;;19.88;8.02;;;;;;;14.36;47.32;98336.81;5115475;27;20061;-75
2023/02/26 01:38:00;;;;;;;17.23;7.95;;;;;;;14.36;47.67;98336.00;5084123;28;20093;-75
2023/02/26 01:40:28;;;;;;;23.70;8.18;;;;;;;14.29;47.71;98322.69;5093922;28;20452;-75
2023/02/26 01:43:01;;;;;;;26.63;7.05;;;;;;;14.27;47.87;98322.25;5094002;28;20457;-75
2023/02/26 01:45:34;;;;;;;21.23;7.18;;;;;;;14.26;47.35;98323.47;5129723;27;20031;-75
2023/02/26 01:47:59;;;;;;;16.80;6.22;;;;;;;14.26;47.34;98321.44;5117854;27;20067;-75
2023/02/26 01:50:28;;;;;;;16.83;5.78;;;;;;;14.25;47.27;98304.97;5112452;27;20122;-75
2023/02/26 01:53:20;;;;;;;19.17;8.47;;;;;;;14.28;47.47;98312.63;5114179;28;20516;-75
2023/02/26 01:55:55;;;;;;;22.83;7.40;;;;;;;14.14;48.00;98316.94;5093588;28;20027;-75
2023/02/26 01:58:24;;;;;;;21.95;7.03;;;;;;;14.06;48.33;98309.63;5110966;27;20456;-75
2023/02/26 02:00:50;;;;;;;30.35;8.25;;;;;;;14.04;48.66;98318.44;5134005;27;20027;-75
2023/02/26 02:03:17;;;;;;;16.08;7.30;;;;;;;14.12;48.36;98324.13;5125286;27;20049;-75
2023/02/26 02:05:50;;;;;;;18.95;8.85;;;;;;;14.10;48.28;98321.69;5122764;27;20023;-75
2023/02/26 02:08:16;;;;;;;23.63;9.40;;;;;;;14.15;48.66;98314.91;5092091;28;20024;-75
2023/02/26 02:10:45;;;;;;;24.15;8.70;;;;;;;14.06;48.41;98315.25;5105921;28;20023;-75
2023/02/26 02:13:38;;;;;;;27.27;7.30;;;;;;;14.04;48.27;98312.81;5113616;28;20019;-75
2023/02/26 02:16:19;;;;;;;25.38;7.50;;;;;;;14.04;48.34;98312.00;5113523;28;20062;-75
2023/02/26 02:19:21;;;;;;;18.45;7.57;;;;;;;14.08;48.47;98307.22;5122272;27;20027;-75
2023/02/26 02:21:56;;;;;;;22.80;8.38;;;;;;;14.10;48.18;98309.66;5127560;27;20036;-75
2023/02/26 02:24:31;;;;;;;28.42;7.15;;;;;;;14.09;47.67;98305.22;5112075;28;20104;-76
2023/02/26 02:27:20;;;;;;;16.17;7.15;;;;;;;14.06;47.36;98306.81;5113273;28;20035;-75
2023/02/26 02:30:23;;;;;;;20.15;6.85;;;;;;;14.15;46.11;98312.09;5113256;28;20108;-75
2023/02/26 02:33:10;;;;;;;22.27;7.40;;;;;;;14.14;46.29;98310.50;5093023;28;20073;-75
2023/02/26 02:35:55;;;;;;;14.77;5.50;;;;;;;14.16;45.97;98306.09;5130893;27;20023;-75
2023/02/26 02:38:27;;;;;;;16.48;7.10;;;;;;;14.19;46.25;98312.97;5094932;28;20489;-75
2023/02/26 02:41:02;;;;;;;23.38;7.10;;;;;;;14.20;46.36;98308.94;5112893;28;20027;-75
2023/02/26 02:43:32;;;;;;;25.63;7.50;;;;;;;14.10;47.02;98312.47;5124001;27;20459;-75
2023/02/26 02:46:04;;;;;;;22.83;6.78;;;;;;;13.98;45.23;98305.94;5125364;27;20081;-76
2023/02/26 02:48:38;;;;;;;26.10;5.88;;;;;;;14.09;43.96;98305.22;5122316;27;20034;-76
2023/02/26 02:51:21;;;;;;;14.23;5.88;;;;;;;14.19;43.93;98310.16;5133404;27;20034;-75
2023/02/26 02:54:04;;;;;;;19.38;5.05;;;;;;;14.29;43.37;98314.25;5127074;27;20098;-75
2023/02/26 02:56:45;;;;;;;21.67;5.65;;;;;;;14.32;43.29;98313.47;5120015;27;20030;-75
2023/02/26 02:59:15;;;;;;;;;;;;;;;14.29;43.30;98314.25;5113442;28;20023;-76
2023/02/26 03:01:42;;;;;;;29.15;5.80;;;;;;;14.31;43.53;98320.28;5117368;27;20342;-75
2023/02/26 03:04:11;;;;;;;26.13;6.70;;;;;;;14.44;43.51;98315.97;5111495;27;20118;-75
2023/02/26 03:06:37;;;;;;;15.50;5.40;;;;;;;14.48;42.79;98307.56;5113177;28;20512;-75
2023/02/26 03:09:05;;;;;;;16.40;5.18;;;;;;;14.50;42.96;98305.16;5128959;27;20030;-75
2023/02/26 03:11:31;;;;;;;37.42;7.55;;;;;;;14.51;43.36;98300.38;5125014;27;20060;-75
2023/02/26 03:13:58;;;;;;;22.10;5.75;;;;;;;14.38;42.57;98297.03;5112533;27;20031;-75
2023/02/26 03:17:06;;;;;;;22.73;6.80;;;;;;;14.38;43.09;98302.66;5112350;28;20024;-75
2023/02/26 03:19:49;;;;;;;24.35;7.60;;;;;;;14.40;43.12;98301.06;5085647;27;20119;-75
2023/02/26 03:22:43;;;;;;;17.63;5.55;;;;;;;14.38;43.01;98295.03;5112227;28;20088;-75
2023/02/26 03:25:32;;;;;;;28.10;6.90;;;;;;;14.45;43.14;98283.81;5112035;28;20075;-76
2023/02/26 03:28:29;;;;;;;23.85;6.13;;;;;;;14.52;42.91;98297.13;5111278;28;20046;-75
2023/02/26 03:31:10;;;;;;;17.00;6.72;;;;;;;14.57;42.75;98293.16;5068437;28;20044;-75
2023/02/26 03:33:46;;;;;;;;;;;;;;;14.44;41.82;98276.59;5098004;28;20030;-75
2023/02/26 03:36:31;;;;;;;22.80;5.75;;;;;;;14.45;43.06;98286.63;5115416;27;20378;-75
2023/02/26 03:39:15;;;;;;;17.08;5.57;;;;;;;14.41;42.99;98285.81;5132226;27;20501;-75
2023/02/26 03:42:17;;;;;;;14.88;5.82;;;;;;;14.40;42.68;98278.56;5132444;27;20052;-75
2023/02/26 03:44:54;;;;;;;21.77;7.95;;;;;;;14.41;42.52;98263.31;5130157;27;20023;-75
2023/02/26 03:47:21;;;;;;;17.75;6.25;;;;;;;14.40;42.88;98267.31;5127040;27;20126;-75
2023/02/26 03:50:10;;;;;;;24.23;6.93;;;;;;;14.37;43.18;98273.75;5110454;28;20071;-75
2023/02/26 03:52:40;;;;;;;28.92;6.82;;;;;;;14.28;43.56;98265.63;5111784;28;20028;-75
2023/02/26 03:55:12;;;;;;;16.65;5.93;;;;;;;14.11;44.35;98271.91;5125755;27;20080;-75
2023/02/26 03:57:38;;;;;;;20.70;5.85;;;;;;;14.17;44.29;98268.34;5110470;28;20547;-75
2023/02/26 04:00:05;;;;;;;23.45;6.25;;;;;;;14.17;44.26;98271.16;5110460;28;20402;-75
2023/02/26 04:02:41;;;;;;;18.95;6.72;;;;;;;14.21;44.50;98271.19;5110322;28;20034;-75
2023/02/26 04:05:13;;;;;;;24.88;6.05;;;;;;;13.86;45.20;98267.66;5112745;27;20115;-75
2023/02/26 04:07:40;;;;;;;19.33;5.82;;;;;;;13.68;45.32;98256.25;5126658;27;20019;-75
2023/02/26 04:10:07;;;;;;;27.63;7.63;;;;;;;13.59;45.83;98253.75;5131132;27;20058;-75
2023/02/26 04:12:33;;;;;;;20.90;6.03;;;;;;;13.77;44.86;98258.75;5132119;27;20433;-75
2023/02/26 04:14:59;;;;;;;27.10;7.32;;;;;;;13.79;44.30;98247.94;5130011;28;20015;-75
2023/02/26 04:17:24;;;;;;;20.63;5.70;;;;;;;13.78;45.07;98246.31;5131991;27;20027;-75
2023/02/26 04:19:50;;;;;;;26.48;7.50;;;;;;;13.77;44.93;98253.13;5097983;28;20024;-75
2023/02/26 04:22:15;;;;;;;18.58;5.75;;;;;;;13.65;44.45;98242.19;5130696;28;20057;-75
2023/02/26 04:24:41;;;;;;;17.67;6.80;;;;;;;13.37;45.43;98243.44;5131886;27;20593;-75
2023/02/26 04:27:06;;;;;;;28.88;6.57;;;;;;;13.22;46.24;98236.88;5110823;27;20054;-75
2023/02/26 04:29:32;;;;;;;20.92;6.13;;;;;;;13.16;46.31;98239.22;5111536;28;20054;-75
2023/02/26 04:31:57;;;;;;;15.63;4.82;;;;;;;13.24;45.83;98249.31;5111911;28;20011;-75
2023/02/26 04:34:23;;;;;;;19.55;6.32;;;;;;;13.23;45.64;98244.09;5130249;27;20545;-75
2023/02/26 04:36:48;;;;;;;22.38;6.57;;;;;;;13.02;46.29;98251.06;5124819;27;20050;-75
2023/02/26 04:39:14;;;;;;;32.95;7.40;;;;;;;12.60;47.07;98242.47;5112417;27;20494;-75
2023/02/26 04:41:39;;;;;;;24.27;5.35;;;;;;;12.53;47.34;98244.38;5111279;28;20019;-75
2023/02/26 04:44:05;;;;;;;27.27;5.75;;;;;;;12.69;45.92;98249.81;5118562;28;20023;-75
2023/02/26 04:46:31;;;;;;;18.83;6.88;;;;;;;12.81;46.18;98271.22;5121671;27;20106;-75
2023/02/26 04:48:56;;;;;;;14.70;5.75;;;;;;;12.91;45.53;98259.31;5111010;28;20035;-75
2023/02/26 04:51:22;;;;;;;23.50;6.50;;;;;;;12.90;46.34;98263.31;5109730;28;20028;-75
2023/02/26 04:53:48;;;;;;;29.38;6.20;;;;;;;12.92;44.26;98258.16;5114126;28;20030;-75
2023/02/26 04:56:13;;;;;;;22.60;7.05;;;;;;;12.92;46.26;98255.34;5131690;27;20398;-75
2023/02/26 04:58:39;;;;;;;19.95;5.82;;;;;;;12.86;46.77;98254.06;5130353;28;20107;-75
2023/02/26 05:01:04;;;;;;;20.00;6.10;;;;;;;12.89;46.96;98251.31;5117484;28;20106;-75
2023/02/26 05:03:30;;;;;;;22.75;7.22;;;;;;;12.67;48.49;98269.84;5112874;27;20027;-75
2023/02/26 05:05:56;;;;;;;24.38;7.57;;;;;;;12.40;51.31;98263.41;5116734;27;20486;-75
2023/02/26 05:08:21;;;;;;;34.45;8.90;;;;;;;12.02;53.20;98266.00;5129201;27;20027;-75
2023/02/26 05:10:48;;;;;;;22.17;8.43;;;;;;;11.93;53.32;98274.63;5113621;28;20027;-75
2023/02/26 05:13:13;;;;;;;24.30;8.88;;;;;;;11.73;54.90;98285.88;5128957;27;20027;-75
2023/02/26 05:15:39;;;;;;;20.50;9.52;;;;;;;11.51;56.01;98290.28;5133501;27;20030;-75
2023/02/26 05:18:04;;;;;;;28.48;11.85;;;;;;;11.50;56.08;98281.06;5133914;27;20240;-75
2023/02/26 05:20:29;;;;;;;24.88;10.27;;;;;;;11.63;55.42;98280.88;5132665;27;20036;-75
2023/02/26 05:22:55;;;;;;;19.85;8.00;;;;;;;11.50;56.48;98274.66;5111670;27;20071;-75
2023/02/26 05:25:21;;;;;;;25.50;8.95;;;;;;;11.57;56.33;98268.38;5118147;27;20016;-75
2023/02/26 05:27:46;;;;;;;24.48;9.65;;;;;;;11.65;56.49;98273.75;5103013;28;20024;-75
2023/02/26 05:30:14;;;;;;;30.10;9.38;;;;;;;11.64;56.79;98285.31;5092735;28;20092;-75
2023/02/26 05:32:40;;;;;;;24.20;9.43;;;;;;;11.58;56.94;98286.81;5102353;28;20046;-75
2023/02/26 05:35:06;;;;;;;27.80;9.02;;;;;;;11.65;56.67;98286.94;5129375;27;20019;-75
2023/02/26 05:37:32;;;;;;;27.75;9.73;;;;;;;11.61;56.98;98286.06;5118687;27;20038;-75
2023/02/26 05:39:57;;;;;;;24.70;10.00;;;;;;;11.56;56.96;98283.56;5112974;28;20020;-75
2023/02/26 05:42:23;;;;;;;22.10;10.20;;;;;;;11.59;57.08;98285.63;5113040;27;20402;-75
2023/02/26 05:44:49;;;;;;;33.30;10.15;;;;;;;11.83;56.52;98287.28;5110853;27;20451;-74
2023/02/26 05:47:15;;;;;;;36.50;11.38;;;;;;;11.89;56.36;98280.19;5129813;27;20140;-75
2023/02/26 05:49:40;;;;;;;41.60;12.10;;;;;;;11.77;57.10;98300.78;5111510;28;20035;-76
2023/02/26 05:52:06;;;;;;;37.05;14.27;;;;;;;11.93;56.70;98308.25;5111407;28;20115;-77
2023/02/26 05:54:31;;;;;;;29.40;11.75;;;;;;;12.03;56.13;98301.25;5112543;27;20075;-74
2023/02/26 05:56:57;;;;;;;27.42;11.93;;;;;;;11.87;56.41;98310.56;5119951;27;20038;-75
2023/02/26 05:59:22;;;;;;;29.38;10.23;;;;;;;11.99;56.03;98295.53;5115082;27;20057;-74
2023/02/26 06:01:48;;;;;;;37.50;10.43;;;;;;;12.04;55.69;98311.28;5113925;28;20023;-74
2023/02/26 06:04:13;;;;;;;46.58;22.05;;;;;;;12.13;55.46;98323.06;5113453;27;20023;-75
2023/02/26 06:06:39;;;;;;;30.65;12.75;;;;;;;12.32;54.52;98302.53;5121356;27;20024;-75
2023/02/26 06:09:05;;;;;;;36.55;16.88;;;;;;;12.41;54.00;98315.50;5116128;27;20065;-75
2023/02/26 06:11:30;;;;;;;32.90;10.07;;;;;;;13.16;45.92;98315.81;5133043;27;20023;-74
2023/02/26 06:13:56;;;;;;;24.25;7.20;;;;;;;13.81;43.28;98312.97;5127459;27;20061;-74
2023/02/26 06:16:21;;;;;;;28.33;6.75;;;;;;;14.55;40.98;98296.38;5113308;28;20016;-74
2023/02/26 06:18:47;;;;;;;27.70;7.65;;;;;;;14.89;39.87;98312.31;5128795;27;20061;-74
2023/02/26 06:21:13;;;;;;;33.42;10.82;;;;;;;15.08;39.38;98310.38;5129894;27;20061;-74
2023/02/26 06:23:38;;;;;;;33.38;12.05;;;;;;;15.11;39.28;98310.41;5112538;27;20151;-75
2023/02/26 06:26:04;;;;;;;36.40;13.23;;;;;;;15.34;38.69;98316.97;5112807;28;20057;-74
2023/02/26 06:28:30;;;;;;;53.70;8.18;;;;;;;15.52;38.54;98323.47;5111408;28;20019;-75
2023/02/26 06:30:55;;;;;;;31.25;10.18;;;;;;;15.56;38.62;98324.28;5103615;27;20494;-73
2023/02/26 06:33:21;;;;;;;31.92;9.95;;;;;;;15.79;37.49;98320.34;5113510;27;20027;-74
2023/02/26 06:35:47;;;;;;;28.20;5.65;;;;;;;15.92;37.17;98311.53;5133789;27;20033;-74
2023/02/26 06:38:14;;;;;;;41.78;13.00;;;;;;;16.12;36.76;98304.31;5105702;27;20027;-74
2023/02/26 06:40:39;;;;;;;33.03;10.73;;;;;;;16.14;37.21;98318.84;5094763;27;20024;-74
2023/02/26 06:43:05;;;;;;;50.38;12.27;;;;;;;16.31;36.76;98307.16;5090271;28;20020;-73
2023/02/26 06:45:30;;;;;;;31.80;10.77;;;;;;;16.45;36.87;98321.28;5127229;27;20505;-73
2023/02/26 06:47:56;;;;;;;45.33;10.57;;;;;;;16.56;36.57;98302.31;5125147;27;20371;-73
2023/02/26 06:50:21;;;;;;;49.15;15.10;;;;;;;16.69;36.18;98314.00;5121849;27;20467;-75
2023/02/26 06:52:47;;;;;;;31.20;8.13;;;;;;;16.81;36.32;98317.63;5114449;27;20023;-75
2023/02/26 06:55:12;;;;;;;22.27;8.35;;;;;;;16.94;35.95;98313.16;5110673;28;20077;-75
2023/02/26 06:57:38;;;;;;;19.60;6.88;;;;;;;17.07;35.86;98310.72;5112376;28;20118;-75
2023/02/26 07:00:05;;;;;;;20.13;5.32;;;;;;;17.21;35.52;98304.25;5112717;28;20051;-75
2023/02/26 07:02:45;;;;;;;27.13;7.13;;;;;;;17.39;35.30;98297.72;5126329;27;20027;-75
2023/02/26 07:05:11;;;;;;;27.33;7.03;;;;;;;17.45;34.28;98303.78;5111315;28;20118;-75
2023/02/26 07:07:36;;;;;;;24.67;7.30;;;;;;;17.47;34.79;98296.47;5111481;28;20066;-74
2023/02/26 07:10:04;;;;;;;27.30;7.20;;;;;;;17.63;35.19;98317.81;5107395;28;20484;-74
2023/02/26 07:12:30;;;;;;;29.65;7.40;;;;;;;17.76;34.87;98316.13;5112430;27;20102;-72
2023/02/26 07:14:55;;;;;;;22.05;6.82;;;;;;;17.84;35.04;98311.25;5126722;27;20015;-76
2023/02/26 07:17:21;;;;;;;25.73;6.30;;;;;;;18.01;35.01;98303.88;5112757;27;20153;-73
2023/02/26 07:19:48;;;;;;;30.88;10.27;;;;;;;18.13;34.85;98308.25;5109819;27;20043;-73
2023/02/26 07:22:14;;;;;;;27.77;6.30;;;;;;;18.14;35.03;98295.72;5111549;27;20031;-74
2023/02/26 07:24:41;;;;;;;24.80;9.73;;;;;;;18.23;34.51;98303.75;5121605;27;20407;-73
2023/02/26 07:27:07;;;;;;;23.80;7.03;;;;;;;18.30;34.36;98303.69;5103504;28;20019;-73
2023/02/26 07:29:32;;;;;;;24.80;6.40;;;;;;;18.39;34.76;98306.03;5106548;28;20016;-73
2023/02/26 07:31:58;;;;;;;31.15;9.48;;;;;;;18.40;34.59;98323.84;5128829;27;20027;-73
2023/02/26 07:34:23;;;;;;;21.13;7.00;;;;;;;18.41;35.10;98339.59;5120793;27;20046;-75
2023/02/26 07:36:49;;;;;;;19.60;5.88;;;;;;;18.52;35.23;98323.31;5110689;27;20034;-75
2023/02/26 07:39:14;;;;;;;15.73;6.63;;;;;;;18.53;35.27;98322.09;5110827;27;20088;-74
2023/02/26 07:41:42;;;;;;;30.45;7.97;;;;;;;18.50;35.97;98322.94;5106655;28;20576;-73
2023/02/26 07:44:08;;;;;;;39.92;8.93;;;;;;;18.42;35.65;98315.72;5108739;28;20032;-74
2023/02/26 07:46:33;;;;;;;37.60;11.38;;;;;;;18.31;35.74;98310.94;5110038;27;20030;-73
2023/02/26 07:48:59;;;;;;;35.55;9.80;;;;;;;18.31;35.02;98304.50;5107312;27;20028;-71
2023/02/26 07:51:24;;;;;;;49.25;8.38;;;;;;;18.29;35.02;98312.59;5103996;27;20023;-69
2023/02/26 07:53:50;;;;;;;21.58;7.32;;;;;;;18.35;35.08;98310.94;5109929;27;20019;-69
2023/02/26 07:56:15;;;;;;;39.85;7.72;;;;;;;18.35;36.20;98316.59;5114737;27;20387;-70
2023/02/26 07:58:41;;;;;;;30.00;8.13;;;;;;;18.23;35.57;98320.72;5090480;28;20427;-69
2023/02/26 08:01:06;;;;;;;30.33;7.03;;;;;;;18.20;36.70;98315.88;5108203;27;20108;-69
2023/02/26 08:03:32;;;;;;;23.13;7.15;;;;;;;18.24;36.21;98322.34;5108897;27;20030;-73
2023/02/26 08:05:59;;;;;;;32.05;6.80;;;;;;;18.31;35.50;98327.94;5124760;27;20106;-75
2023/02/26 08:08:25;;;;;;;18.83;7.40;;;;;;;18.41;36.21;98305.63;5113334;27;20020;-78
2023/02/26 08:10:51;;;;;;;30.35;7.80;;;;;;;18.43;36.46;98306.00;5108861;28;20111;-75
2023/02/26 08:13:17;;;;;;;31.15;6.82;;;;;;;18.49;36.26;98307.97;5108231;28;20177;-81
2023/02/26 08:15:42;;;;;;;41.30;8.40;;;;;;;18.52;36.00;98300.69;5116533;28;20053;-77
2023/02/26 08:18:09;;;;;;;35.38;6.60;;;;;;;18.44;36.45;98304.78;5113395;28;20480;-74
2023/02/26 08:20:34;;;;;;;24.27;7.07;;;;;;;18.56;36.51;98309.94;5125021;27;20458;-74
2023/02/26 08:23:00;;;;;;;34.55;7.50;;;;;;;18.68;35.35;98294.47;5107360;28;20055;-73
2023/02/26 08:25:25;;;;;;;20.90;7.13;;;;;;;18.72;36.41;98303.72;5105581;28;20076;-74
2023/02/26 08:27:51;;;;;;;30.25;7.55;;;;;;;18.81;35.36;98320.22;5107253;28;20064;-74
2023/02/26 08:30:17;;;;;;;24.83;7.55;;;;;;;18.82;36.02;98304.84;5107066;28;20027;-74
2023/02/26 08:32:44;;;;;;;21.95;8.38;;;;;;;18.94;35.76;98315.69;5107347;28;20066;-74
2023/02/26 08:35:10;;;;;;;25.23;6.70;;;;;;;18.96;35.79;98291.78;5106843;28;20403;-74
2023/02/26 08:37:37;;;;;;;24.58;7.20;;;;;;;19.18;36.32;98298.03;5109488;28;20031;-73
2023/02/26 08:40:03;;;;;;;25.73;7.43;;;;;;;19.36;35.16;98292.94;5108311;28;20031;-72
2023/02/26 08:42:29;;;;;;;28.60;7.65;;;;;;;19.32;34.89;98302.75;5110170;28;20027;-73
2023/02/26 08:44:54;;;;;;;27.92;8.45;;;;;;;19.43;35.21;98306.25;5109723;28;20034;-75
2023/02/26 08:47:20;;;;;;;21.27;7.25;;;;;;;19.55;34.53;98309.72;5112172;28;20020;-74
2023/02/26 08:49:45;;;;;;;25.73;7.47;;;;;;;19.55;34.94;98295.56;5112075;28;20028;-74
2023/02/26 08:52:11;;;;;;;29.75;8.23;;;;;;;19.72;34.41;98294.53;5097030;28;20027;-73
2023/02/26 08:54:36;;;;;;;16.77;7.38;;;;;;;19.73;34.25;98293.31;5105921;28;20019;-73
2023/02/26 08:57:02;;;;;;;26.92;6.85;;;;;;;19.80;33.43;98292.41;5110881;28;20501;-73
2023/02/26 08:59:27;;;;;;;29.05;7.28;;;;;;;20.02;33.11;98309.94;5111575;27;20549;-74
2023/02/26 09:01:53;;;;;;;42.28;6.80;;;;;;;19.98;33.37;98297.84;5111015;28;20059;-74
2023/02/26 09:04:18;;;;;;;42.30;7.63;;;;;;;20.08;33.60;98312.31;5110531;28;20062;-72
2023/02/26 09:06:44;;;;;;;34.95;6.28;;;;;;;20.05;33.96;98316.78;5111966;28;20023;-73
2023/02/26 09:09:10;;;;;;;19.20;7.03;;;;;;;20.02;33.83;98312.78;5110570;28;20328;-73
2023/02/26 09:11:35;;;;;;;22.75;8.15;;;;;;;19.98;33.84;98309.19;5107325;28;20031;-74
2023/02/26 09:14:02;;;;;;;22.27;7.35;;;;;;;20.06;33.85;98302.19;5110768;28;20088;-74
2023/02/26 09:16:28;;;;;;;29.05;8.38;;;;;;;20.28;33.45;98338.78;5110372;28;20511;-74
2023/02/26 09:18:54;;;;;;;25.10;6.40;;;;;;;20.09;33.61;98326.09;5111137;28;20067;-74
2023/02/26 09:21:21;;;;;;;29.20;6.72;;;;;;;19.95;34.02;98317.75;5111795;28;20109;-74
2023/02/26 09:23:47;;;;;;;35.33;7.25;;;;;;;19.97;34.19;98312.44;5111595;28;20047;-74
2023/02/26 09:26:12;;;;;;;39.22;9.20;;;;;;;20.30;33.87;98319.28;5111418;28;20027;-72
2023/02/26 09:28:38;;;;;;;37.25;7.40;;;;;;;20.31;33.21;98315.19;5109792;28;20030;-73
2023/02/26 09:31:05;;;;;;;28.33;7.78;;;;;;;20.34;33.50;98313.53;5111461;28;20490;-73
2023/02/26 09:33:32;;;;;;;31.48;8.02;;;;;;;20.43;33.35;98327.19;5110256;28;20027;-73
2023/02/26 09:35:57;;;;;;;30.73;7.15;;;;;;;20.05;33.33;98328.97;5109940;28;20034;-73
2023/02/26 09:38:23;;;;;;;16.13;6.30;;;;;;;20.04;33.89;98324.53;5111520;28;20023;-75
2023/02/26 09:40:57;;;;;;;24.33;8.55;;;;;;;20.08;33.73;98312.31;5104886;28;20031;-74
2023/02/26 09:43:35;;;;;;;34.90;6.53;;;;;;;20.17;33.11;98304.84;5104767;28;20025;-74
2023/02/26 09:46:10;;;;;;;25.05;6.32;;;;;;;19.86;33.23;98309.75;5111330;28;20142;-74
2023/02/26 09:48:38;;;;;;;28.33;8.20;;;;;;;19.93;33.68;98309.69;5110796;28;20140;-73
2023/02/26 09:51:06;;;;;;;23.85;6.07;;;;;;;20.02;32.72;98298.59;5107067;28;20027;-74
2023/02/26 09:53:37;;;;;;;25.00;6.13;;;;;;;20.15;33.05;98280.97;5108982;28;20102;-73
2023/02/26 09:56:22;;;;;;;28.90;9.15;;;;;;;20.12;32.44;98291.16;5110547;28;20478;-72
2023/02/26 09:58:51;;;;;;;36.40;5.53;;;;;;;20.28;32.69;98296.19;5109684;28;20069;-73
2023/02/26 10:01:55;;;;;;;27.33;7.68;;;;;;;20.34;33.10;98296.50;5111005;28;20042;-75
2023/02/26 10:04:49;;;;;;;20.98;6.53;;;;;;;20.26;32.90;98301.47;5089668;28;20573;-75
2023/02/26 10:07:38;;;;;;;47.75;7.82;;;;;;;20.59;32.31;98281.09;5100949;28;20019;-75
2023/02/26 10:10:29;;;;;;;33.53;7.88;;;;;;;20.38;31.49;98288.72;5110938;28;20472;-74
2023/02/26 10:12:55;;;;;;;17.40;6.03;;;;;;;20.51;31.86;98291.75;5110671;28;20042;-75
2023/02/26 10:15:35;;;;;;;32.40;8.07;;;;;;;20.70;31.62;98289.41;5109255;28;20016;-74
2023/02/26 10:18:16;;;;;;;36.72;6.13;;;;;;;20.70;31.17;98286.56;5110565;28;20023;-75
2023/02/26 10:21:03;;;;;;;26.58;6.32;;;;;;;20.62;31.07;98283.84;5107306;28;20518;-77
2023/02/26 10:23:45;;;;;;;46.70;6.03;;;;;;;20.79;30.46;98298.16;5107656;28;20576;-78
2023/02/26 10:26:21;;;;;;;18.33;5.28;;;;;;;20.69;30.98;98282.91;5109076;28;20078;-74
2023/02/26 10:28:56;;;;;;;29.88;6.97;;;;;;;20.72;31.74;98286.94;5108755;28;20024;-76
2023/02/26 10:31:43;;;;;;;30.63;6.50;;;;;;;20.92;31.52;98284.16;5108974;28;20031;-78
2023/02/26 10:34:14;;;;;;;21.50;6.20;;;;;;;20.86;31.23;98277.38;5110514;28;20503;-77
2023/02/26 10:37:03;;;;;;;24.27;6.97;;;;;;;20.88;31.21;98272.06;5109106;28;20027;-76
2023/02/26 10:39:37;;;;;;;19.75;5.45;;;;;;;20.96;30.86;98267.03;5078636;28;20383;-76
2023/02/26 10:42:11;;;;;;;29.02;6.45;;;;;;;20.92;31.43;98272.00;5108596;28;20027;-77
2023/02/26 10:44:48;;;;;;;19.83;5.80;;;;;;;20.93;31.01;98270.75;5108807;28;20064;-77
2023/02/26 10:47:56;;;;;;;23.30;5.72;;;;;;;21.39;30.40;98269.03;5109997;27;20054;-76
2023/02/26 10:50:23;;;;;;;19.48;6.10;;;;;;;21.14;29.86;98267.50;5098872;28;20035;-78
2023/02/26 10:52:51;;;;;;;25.05;5.85;;;;;;;20.88;29.90;98258.66;5107944;28;20019;-77
2023/02/26 10:55:36;;;;;;;20.38;5.65;;;;;;;20.85;30.65;98259.50;5108935;28;20480;-76
2023/02/26 10:58:08;;;;;;;25.50;5.57;;;;;;;21.12;31.02;98254.97;5109841;28;20456;-77
2023/02/26 11:00:36;;;;;;;22.25;7.07;;;;;;;21.14;31.12;98255.31;5109096;27;20035;-77
2023/02/26 11:03:06;;;;;;;19.27;6.55;;;;;;;21.20;30.58;98262.13;5108282;28;20114;-80
2023/02/26 11:05:33;;;;;;;40.20;8.25;;;;;;;21.16;30.53;98252.84;5109518;28;20023;-77
2023/02/26 11:08:14;;;;;;;23.17;5.72;;;;;;;20.83;30.68;98256.31;5108469;28;20425;-79
2023/02/26 11:11:02;;;;;;;21.95;6.65;;;;;;;20.54;30.82;98259.66;5108799;28;20028;-75
2023/02/26 11:13:30;;;;;;;40.35;8.50;;;;;;;20.71;30.96;98246.38;5111480;27;20463;-73
2023/02/26 11:16:00;;;;;;;25.60;7.43;;;;;;;20.87;31.02;98237.16;5110644;28;20027;-76
2023/02/26 11:18:28;;;;;;;;;;;;;;;20.76;31.03;98233.72;5111763;28;20041;-76
2023/02/26 11:20:57;;;;;;;55.05;19.70;;;;;;;20.53;31.66;98229.66;5110371;28;19911;-76
2023/02/26 11:23:27;;;;;;;52.30;14.35;;;;;;;20.42;31.98;98237.56;5097739;28;20116;-76
2023/02/26 11:26:06;;;;;;;43.05;13.40;;;;;;;20.58;31.43;98237.66;5111029;28;20455;-76
2023/02/26 11:28:43;;;;;;;29.42;7.45;;;;;;;20.80;31.26;98240.13;5103020;28;20032;-75
2023/02/26 11:31:10;;;;;;;24.05;6.45;;;;;;;20.93;30.58;98234.59;5100581;28;20478;-76
2023/02/26 11:33:39;;;;;;;14.25;4.43;;;;;;;20.95;30.65;98231.34;5112279;28;20019;-76
2023/02/26 11:36:17;;;;;;;29.25;7.85;;;;;;;20.92;31.04;98226.53;5112037;28;20016;-76
2023/02/26 11:38:55;;;;;;;20.27;6.32;;;;;;;21.03;30.21;98222.22;5110131;28;20035;-76
2023/02/26 11:41:22;;;;;;;32.95;7.50;;;;;;;21.24;30.07;98203.13;5100615;28;20092;-76